Terminal Aerodrome Forecast
Issued by NWS

Home | Current Version | Previous Version | Text Only | Print | Product List | Glossary On
Versions: 1 2 3 4 5 6 7 8 9 10 11 12 13 14 15 16 17 18 19 20 21 22 23 24
000
FTUS45 KGJT 231734
TAFEGE
TAF
KEGE 231734Z 2318/2418 24005KT P6SM VCTS FEW110CB SCT150
     FM231900 26008KT P6SM VCTS SCT090CB BKN130
      TEMPO 2319/2323 -TSRA BKN080CB
     FM240200 03004KT P6SM SCT250=

USA.gov is the U.S. government's official web portal to all federal, state and local government web resources and services.